Time;durP1;ratioP1;P1;durP2;ratioP2;P2;SDS_P1;SDS_P2;PMS_P1;PMS_P2;Temp;Humidity;BMP_temperature;BMP_pressure;BME280_temperature;BME280_humidity;BME280_pressure;Samples;Min_cycle;Max_cycle;Signal;HPM_P1;HPM_P2
2023/01/03 00:01:36;;;;;;;9.10;5.00;;;;;;;6.65;93.11;101639.83;105360;1290;60739;-78
2023/01/03 00:04:03;;;;;;;9.30;4.90;;;;;;;6.62;93.38;101639.86;105289;1294;61149;-78
2023/01/03 00:06:36;;;;;;;10.00;5.50;;;;;;;6.58;93.79;101643.02;105311;1294;73513;-78
2023/01/03 00:09:05;;;;;;;9.70;5.00;;;;;;;6.56;93.72;101644.58;105415;1295;69312;-77
2023/01/03 00:14:25;;;;;;;7.20;4.30;;;;;;;6.50;93.90;101656.10;105436;1293;60512;-77
2023/01/03 00:16:54;;;;;;;8.10;4.50;;;;;;;6.46;94.38;101657.86;105423;1287;59284;-77
2023/01/03 00:19:22;;;;;;;8.10;4.40;;;;;;;6.46;94.31;101658.40;105692;1294;75174;-77
2023/01/03 00:21:48;;;;;;;9.80;4.40;;;;;;;6.46;93.96;101662.25;105513;1296;71508;-76
2023/01/03 00:24:16;;;;;;;10.00;3.60;;;;;;;6.48;93.78;101665.23;105605;1293;70180;-77
2023/01/03 00:26:42;;;;;;;6.30;3.50;;;;;;;6.49;93.34;101667.99;105629;1297;60126;-77
2023/01/03 00:29:10;;;;;;;7.90;3.60;;;;;;;6.50;93.24;101674.27;105809;1286;59295;-77
2023/01/03 00:31:37;;;;;;;6.50;3.70;;;;;;;6.49;93.22;101672.73;105675;1294;75420;-78
2023/01/03 00:34:05;;;;;;;7.70;3.80;;;;;;;6.48;93.33;101678.80;105431;1294;70598;-78
2023/01/03 00:36:32;;;;;;;7.40;3.80;;;;;;;6.46;93.14;101683.36;105214;1299;71598;-78
2023/01/03 00:38:59;;;;;;;8.10;4.20;;;;;;;6.45;92.87;101681.83;105289;1291;60832;-78
2023/01/03 00:41:26;;;;;;;8.80;4.20;;;;;;;6.43;92.96;101685.67;105536;1287;58896;-77
2023/01/03 00:43:52;;;;;;;9.40;4.10;;;;;;;6.44;92.72;101687.42;105438;1295;73437;-77
2023/01/03 00:46:19;;;;;;;8.70;4.10;;;;;;;6.41;92.60;101689.41;105616;1293;59262;-77
2023/01/03 00:48:46;;;;;;;9.40;4.20;;;;;;;6.42;92.66;101692.87;105290;1290;72751;-78
2023/01/03 00:51:21;;;;;;;6.90;3.80;;;;;;;6.40;92.57;101690.71;105538;1293;59315;-77
2023/01/03 00:53:50;;;;;;;7.10;3.10;;;;;;;6.35;92.06;101699.67;105300;1296;58993;-78
2023/01/03 00:56:20;;;;;;;8.10;3.60;;;;;;;6.35;91.77;101695.46;105338;1295;73061;-78
2023/01/03 00:58:47;;;;;;;6.40;3.00;;;;;;;6.33;91.65;101694.91;105350;1295;71375;-78
2023/01/03 01:01:23;;;;;;;6.30;3.10;;;;;;;6.30;91.46;101692.55;105536;1295;71667;-78
2023/01/03 01:03:55;;;;;;;8.30;3.50;;;;;;;6.30;91.32;101692.57;105356;1295;59888;-78
2023/01/03 01:06:28;;;;;;;9.00;3.70;;;;;;;6.25;91.44;101700.16;105439;1290;59825;-77
2023/01/03 01:08:56;;;;;;;9.00;3.50;;;;;;;6.19;91.62;101702.55;105287;1295;73672;-77
2023/01/03 01:11:24;;;;;;;7.70;3.50;;;;;;;6.17;91.81;101705.35;105418;1295;68753;-78
2023/01/03 01:13:52;;;;;;;7.20;3.80;;;;;;;6.15;91.62;101713.23;105427;1297;71508;-77
2023/01/03 01:16:21;;;;;;;8.80;3.50;;;;;;;6.12;91.67;101721.17;105372;1295;60951;-77
2023/01/03 01:18:49;;;;;;;6.00;3.30;;;;;;;6.08;92.05;101719.77;105458;1297;59283;-77
2023/01/03 01:21:19;;;;;;;7.20;3.50;;;;;;;6.05;92.16;101725.09;105501;1295;74604;-77
2023/01/03 01:23:46;;;;;;;9.50;3.50;;;;;;;6.03;91.90;101736.45;105389;1289;69642;-77
2023/01/03 01:26:16;;;;;;;8.50;3.30;;;;;;;6.00;92.18;101738.10;105534;1284;72035;-77
2023/01/03 01:28:42;;;;;;;6.70;3.40;;;;;;;5.97;92.09;101743.13;105467;1287;60282;-77
2023/01/03 01:31:12;;;;;;;8.00;3.60;;;;;;;5.92;92.43;101749.04;105508;1285;59341;-77
2023/01/03 01:33:39;;;;;;;8.90;3.20;;;;;;;5.91;92.34;101750.56;105479;1293;73436;-77
2023/01/03 01:36:08;;;;;;;7.50;2.70;;;;;;;5.86;92.37;101756.20;105437;1297;70760;-77
2023/01/03 01:38:34;;;;;;;7.60;3.10;;;;;;;5.83;92.38;101760.50;105480;1290;71080;-77
2023/01/03 01:41:01;;;;;;;8.10;3.40;;;;;;;5.80;92.28;101767.76;105335;1297;61304;-77
2023/01/03 01:46:26;;;;;;;8.50;3.20;;;;;;;5.74;92.77;101777.16;105518;1294;74635;-77
2023/01/03 01:49:03;;;;;;;9.40;3.40;;;;;;;5.70;92.79;101779.50;105484;1290;70941;-77
2023/01/03 01:51:34;;;;;;;6.70;3.10;;;;;;;5.65;92.97;101781.10;105449;1293;72457;-77
2023/01/03 01:54:05;;;;;;;6.90;2.90;;;;;;;5.63;93.13;101781.33;105355;1296;59899;-78
2023/01/03 01:56:52;;;;;;;7.30;3.30;;;;;;;5.61;93.41;101783.94;105382;1297;59665;-78
2023/01/03 01:59:18;;;;;;;7.20;3.30;;;;;;;5.60;93.25;101788.76;105520;1295;72339;-78
2023/01/03 02:01:47;;;;;;;8.80;3.50;;;;;;;5.58;93.20;101790.27;105511;1290;70182;-78
2023/01/03 02:04:24;;;;;;;8.30;3.30;;;;;;;5.56;93.25;101790.27;105367;1291;72814;-78
2023/01/03 02:06:52;;;;;;;8.50;3.30;;;;;;;5.53;93.05;101792.05;105445;1287;60052;-78
2023/01/03 02:09:19;;;;;;;8.20;3.40;;;;;;;5.53;92.83;101795.44;105388;1295;60222;-78
2023/01/03 02:15:07;;;;;;;6.90;3.30;;;;;;;5.49;92.54;101795.50;105525;1293;71041;-78
2023/01/03 02:17:45;;;;;;;6.50;3.20;;;;;;;5.46;92.66;101798.16;105459;1296;72169;-78
2023/01/03 02:20:18;;;;;;;8.20;3.10;;;;;;;5.43;92.63;101800.66;105634;1293;61505;-78
2023/01/03 02:23:17;;;;;;;9.40;3.00;;;;;;;5.42;92.35;101801.83;105496;1298;59746;-78
2023/01/03 02:26:26;;;;;;;7.90;3.40;;;;;;;5.38;92.29;101804.21;105456;1288;73299;-78
2023/01/03 02:29:06;;;;;;;10.70;3.40;;;;;;;5.33;92.40;101806.85;105068;1301;71747;-78
2023/01/03 02:31:56;;;;;;;8.60;2.90;;;;;;;5.28;92.62;101809.10;105472;1295;70396;-78
2023/01/03 02:34:28;;;;;;;7.20;3.40;;;;;;;5.25;92.98;101807.77;105604;1293;60849;-77
2023/01/03 02:37:23;;;;;;;9.00;3.10;;;;;;;5.21;93.20;101803.66;105544;1293;60436;-77
2023/01/03 02:39:58;;;;;;;7.20;3.40;;;;;;;5.17;93.07;101804.02;105635;1294;73252;-78
2023/01/03 02:43:04;;;;;;;7.90;3.30;;;;;;;5.11;92.90;101803.37;105551;1290;71645;-77
2023/01/03 02:45:43;;;;;;;8.50;3.80;;;;;;;5.05;92.83;101802.46;105608;1293;71536;-78
2023/01/03 02:48:23;;;;;;;8.30;3.60;;;;;;;4.99;92.85;101807.10;105637;1287;59644;-78
2023/01/03 02:50:54;;;;;;;9.60;3.50;;;;;;;4.94;93.11;101808.88;105532;1294;61345;-78
2023/01/03 02:53:37;;;;;;;10.60;4.10;;;;;;;4.87;93.09;101807.02;105371;1295;73584;-78
2023/01/03 02:56:08;;;;;;;9.00;3.70;;;;;;;4.82;93.26;101799.48;105511;1288;69962;-78
2023/01/03 02:58:38;;;;;;;7.50;3.20;;;;;;;4.78;93.34;101796.31;105527;1286;72928;-78
2023/01/03 03:01:07;;;;;;;7.40;3.30;;;;;;;4.75;93.23;101797.38;105423;1290;60632;-78
2023/01/03 03:03:38;;;;;;;8.20;3.70;;;;;;;4.71;93.31;101792.27;105634;1287;59064;-78
2023/01/03 03:06:22;;;;;;;7.90;3.80;;;;;;;4.68;93.58;101796.69;105505;1295;74727;-78
2023/01/03 03:08:49;;;;;;;7.30;3.70;;;;;;;4.64;94.06;101799.36;105384;1291;69619;-77
2023/01/03 03:14:14;;;;;;;6.60;3.40;;;;;;;4.61;94.04;101800.34;105560;1293;60194;-78
2023/01/03 03:16:47;;;;;;;7.80;3.90;;;;;;;4.59;94.00;101804.15;105559;1290;58994;-78
2023/01/03 03:25:08;;;;;;;6.40;3.70;;;;;;;4.57;94.17;101802.55;105523;1287;71930;-78
2023/01/03 03:30:26;;;;;;;5.70;3.50;;;;;;;4.59;94.10;101801.70;105468;1292;59297;-78
2023/01/03 03:32:58;;;;;;;8.00;4.10;;;;;;;4.60;93.91;101807.05;105503;1287;76690;-78
2023/01/03 03:35:25;;;;;;;6.00;3.40;;;;;;;4.61;93.84;101806.82;105379;1290;69597;-78
2023/01/03 03:37:55;;;;;;;7.80;3.20;;;;;;;4.60;93.80;101805.48;105594;1295;71700;-78
2023/01/03 03:46:29;;;;;;;7.30;4.00;;;;;;;4.56;93.54;101811.02;105596;1287;74495;-78
2023/01/03 03:51:56;;;;;;;9.30;3.80;;;;;;;4.54;93.74;101825.69;105483;1294;71127;-78
2023/01/03 03:54:24;;;;;;;7.90;3.80;;;;;;;4.54;93.75;101819.19;105363;1291;59338;-78
2023/01/03 03:57:01;;;;;;;9.80;3.90;;;;;;;4.55;93.62;101814.10;105360;1295;59562;-78
2023/01/03 03:59:30;;;;;;;7.10;3.70;;;;;;;4.55;93.47;101816.35;105620;1287;73399;-78
2023/01/03 04:01:59;;;;;;;7.10;3.70;;;;;;;4.55;93.46;101818.44;105484;1294;72760;-78
2023/01/03 04:04:34;;;;;;;7.50;4.20;;;;;;;4.53;93.22;101826.80;105481;1290;70454;-78
2023/01/03 04:07:01;;;;;;;9.00;3.90;;;;;;;4.54;93.24;101832.40;105388;1296;59601;-78
2023/01/03 04:09:28;;;;;;;10.00;4.30;;;;;;;4.52;93.44;101831.10;105596;1293;63554;-78
2023/01/03 04:11:54;;;;;;;7.20;4.50;;;;;;;4.51;93.58;101826.98;105601;1291;74437;-78
2023/01/03 04:14:21;;;;;;;9.00;4.40;;;;;;;4.49;93.83;101823.89;105583;1285;60087;-78
2023/01/03 04:16:47;;;;;;;9.30;4.70;;;;;;;4.48;93.97;101823.09;105505;1297;59020;-78
2023/01/03 04:19:14;;;;;;;8.40;4.10;;;;;;;4.47;94.31;101824.10;105375;1295;60431;-78
2023/01/03 04:21:40;;;;;;;10.50;5.00;;;;;;;4.47;94.65;101829.98;105629;1295;59051;-78
2023/01/03 04:24:07;;;;;;;9.90;4.90;;;;;;;4.48;94.71;101828.86;105447;1295;59064;-78
2023/01/03 04:26:33;;;;;;;9.90;4.80;;;;;;;4.49;95.09;101827.41;105597;1285;59196;-78
2023/01/03 04:29:00;;;;;;;9.30;4.80;;;;;;;4.52;94.86;101831.15;105504;1293;59186;-77
2023/01/03 04:31:26;;;;;;;8.00;5.20;;;;;;;4.52;94.67;101832.34;105583;1287;58900;-77
2023/01/03 04:33:53;;;;;;;9.70;5.00;;;;;;;4.52;94.64;101830.37;105595;1284;59025;-78
2023/01/03 04:36:20;;;;;;;12.60;6.00;;;;;;;4.53;94.81;101832.42;105457;1297;58409;-77
2023/01/03 04:38:46;;;;;;;13.90;5.90;;;;;;;4.54;95.19;101834.27;105509;1295;71355;-77
2023/01/03 04:41:13;;;;;;;11.00;6.00;;;;;;;4.55;95.05;101839.62;105461;1294;72674;-78
2023/01/03 04:46:25;;;;;;;9.70;5.70;;;;;;;4.56;94.69;101840.95;105623;1285;59575;-78
2023/01/03 04:48:51;;;;;;;11.20;5.90;;;;;;;4.56;94.68;101843.95;105443;1294;73584;-78
2023/01/03 04:51:18;;;;;;;12.10;5.80;;;;;;;4.56;94.70;101848.00;105607;1287;59108;-78
2023/01/03 04:53:45;;;;;;;10.50;5.80;;;;;;;4.56;94.69;101853.42;105477;1298;71322;-78
2023/01/03 04:56:11;;;;;;;11.70;6.50;;;;;;;4.56;94.87;101849.71;105458;1295;59432;-78
2023/01/03 04:58:38;;;;;;;12.30;6.70;;;;;;;4.57;95.25;101854.72;105356;1294;59171;-78
2023/01/03 05:01:08;;;;;;;13.30;6.90;;;;;;;4.60;95.29;101862.23;105484;1294;58913;-78
2023/01/03 05:03:36;;;;;;;11.80;7.10;;;;;;;4.66;95.30;101863.60;105369;1291;69718;-78
2023/01/03 05:06:07;;;;;;;12.40;7.10;;;;;;;4.71;95.57;101871.42;105566;1292;71086;-78
2023/01/03 05:08:34;;;;;;;10.70;7.20;;;;;;;4.78;95.55;101874.66;105502;1293;60154;-78
2023/01/03 05:11:01;;;;;;;12.00;7.60;;;;;;;4.85;95.55;101875.00;105479;1295;59268;-78
2023/01/03 05:13:28;;;;;;;12.10;7.30;;;;;;;4.94;95.54;101875.66;105650;1292;74403;-78
2023/01/03 05:15:55;;;;;;;15.70;8.20;;;;;;;5.01;95.40;101872.45;105467;1297;69922;-78
2023/01/03 05:18:22;;;;;;;11.30;7.60;;;;;;;5.09;95.41;101872.61;105464;1298;73226;-78
2023/01/03 05:26:20;;;;;;;11.50;7.50;;;;;;;5.30;94.90;101869.67;105440;1291;75035;-77
2023/01/03 05:28:51;;;;;;;10.90;6.70;;;;;;;5.35;94.60;101870.23;105478;1293;71167;-77
2023/01/03 05:31:18;;;;;;;10.50;7.30;;;;;;;5.38;94.46;101867.36;105489;1288;72846;-77
2023/01/03 05:33:45;;;;;;;12.50;7.00;;;;;;;5.41;94.21;101864.52;105394;1287;60875;-77
2023/01/03 05:36:12;;;;;;;11.00;7.20;;;;;;;5.43;94.00;101866.46;105324;1294;59338;-77
2023/01/03 05:38:38;;;;;;;9.80;7.10;;;;;;;5.45;94.05;101871.61;105486;1294;74019;-77
2023/01/03 05:41:05;;;;;;;10.30;6.70;;;;;;;5.46;93.97;101870.65;105426;1297;59012;-77
2023/01/03 05:43:32;;;;;;;11.10;7.40;;;;;;;5.49;94.12;101874.08;105469;1297;71256;-77
2023/01/03 05:45:58;;;;;;;13.40;6.60;;;;;;;5.54;93.76;101872.67;105439;1295;61302;-77
2023/01/03 05:48:25;;;;;;;11.70;6.60;;;;;;;5.58;93.95;101877.62;105507;1293;58991;-78
2023/01/03 05:50:56;;;;;;;12.50;6.90;;;;;;;5.63;93.72;101879.91;105509;1294;74890;-78
2023/01/03 05:53:23;;;;;;;13.00;7.10;;;;;;;5.67;93.50;101887.19;105455;1297;72150;-78
2023/01/03 05:55:50;;;;;;;10.60;7.20;;;;;;;5.66;93.12;101886.02;105488;1295;72444;-77
2023/01/03 05:58:16;;;;;;;13.80;7.90;;;;;;;5.64;92.97;101886.33;105642;1300;60518;-77
2023/01/03 06:00:43;;;;;;;12.80;7.70;;;;;;;5.65;93.08;101887.29;105471;1293;59610;-78
2023/01/03 06:03:09;;;;;;;10.60;7.40;;;;;;;5.68;93.19;101890.36;105469;1294;59380;-77
2023/01/03 06:05:36;;;;;;;11.00;7.00;;;;;;;5.71;92.94;101894.78;105465;1290;58936;-78
2023/01/03 06:08:02;;;;;;;12.90;7.20;;;;;;;5.72;92.75;101896.39;105484;1293;58778;-77
2023/01/03 06:10:29;;;;;;;10.60;7.10;;;;;;;5.75;92.86;101897.34;105469;1293;59345;-78
2023/01/03 06:12:55;;;;;;;12.10;7.50;;;;;;;5.77;92.91;101902.77;105458;1291;58918;-78
2023/01/03 06:15:22;;;;;;;10.50;6.90;;;;;;;5.80;92.86;101906.22;105491;1295;73379;-77
2023/01/03 06:17:56;;;;;;;13.30;7.70;;;;;;;5.84;92.56;101909.44;105392;1297;70117;-78
2023/01/03 06:20:27;;;;;;;13.40;7.30;;;;;;;5.86;92.60;101912.94;105464;1297;71148;-78
2023/01/03 06:22:54;;;;;;;11.90;7.20;;;;;;;5.89;92.62;101910.48;105396;1297;59725;-77
2023/01/03 06:25:21;;;;;;;11.90;7.50;;;;;;;5.89;92.42;101909.91;105631;1294;60135;-77
2023/01/03 06:27:47;;;;;;;11.10;7.30;;;;;;;5.88;92.19;101914.40;105486;1293;74767;-77
2023/01/03 06:30:15;;;;;;;12.60;7.50;;;;;;;5.89;92.14;101914.30;105506;1296;59491;-77
2023/01/03 06:32:43;;;;;;;14.00;6.90;;;;;;;5.90;92.24;101914.59;105358;1289;73256;-77
2023/01/03 06:35:10;;;;;;;10.70;7.30;;;;;;;5.93;92.22;101920.55;105468;1297;60994;-78
2023/01/03 06:37:37;;;;;;;12.70;7.70;;;;;;;5.96;92.30;101920.55;105200;1297;257016;-78
2023/01/03 06:40:04;;;;;;;10.70;7.30;;;;;;;5.99;92.12;101928.02;105202;1303;73495;-77
2023/01/03 06:42:38;;;;;;;10.80;7.20;;;;;;;6.00;91.84;101926.88;105418;1294;70860;-77
2023/01/03 06:53:31;;;;;;;11.70;8.30;;;;;;;6.08;91.65;101939.66;105480;1294;73177;-78
2023/01/03 06:55:58;;;;;;;12.50;8.40;;;;;;;6.09;91.62;101940.61;105378;1297;72752;-78
2023/01/03 06:58:25;;;;;;;12.20;8.00;;;;;;;6.10;91.59;101944.95;105483;1297;73029;-78
2023/01/03 07:00:52;;;;;;;11.50;7.80;;;;;;;6.10;91.37;101945.23;105645;1292;60119;-78
2023/01/03 07:03:19;;;;;;;11.80;8.10;;;;;;;6.12;91.48;101947.58;105474;1290;60104;-78
2023/01/03 07:05:45;;;;;;;11.90;8.00;;;;;;;6.16;91.50;101947.70;105389;1290;73841;-78
2023/01/03 07:08:11;;;;;;;13.90;8.50;;;;;;;6.17;91.26;101951.81;105496;1295;59102;-78
2023/01/03 07:10:38;;;;;;;14.40;9.50;;;;;;;6.14;91.29;101953.19;105484;1294;73829;-78
2023/01/03 07:15:50;;;;;;;12.20;8.90;;;;;;;6.05;91.02;101951.39;105548;1293;60508;-78
2023/01/03 07:18:16;;;;;;;13.00;9.20;;;;;;;6.00;91.14;101954.45;105658;1293;73196;-78
2023/01/03 07:20:43;;;;;;;13.70;9.70;;;;;;;5.95;90.92;101965.20;105652;1293;58768;-78
2023/01/03 07:23:11;;;;;;;15.40;10.20;;;;;;;5.90;91.31;101972.04;105545;1277;72810;-78
2023/01/03 07:25:40;;;;;;;15.00;10.30;;;;;;;5.87;91.15;101976.98;105536;1294;59962;-78
2023/01/03 07:28:10;;;;;;;13.00;10.30;;;;;;;5.86;91.55;101979.53;105546;1294;58872;-78
2023/01/03 07:30:39;;;;;;;13.40;9.70;;;;;;;5.86;91.51;101980.19;105528;1295;75447;-78
2023/01/03 07:33:08;;;;;;;14.30;10.30;;;;;;;5.85;91.55;101980.65;105455;1296;68640;-78
2023/01/03 07:35:36;;;;;;;16.50;10.40;;;;;;;5.83;91.66;101983.09;105390;1298;72760;-78
2023/01/03 07:38:04;;;;;;;14.60;10.70;;;;;;;5.83;91.57;101988.51;105412;1295;59652;-78
2023/01/03 07:40:30;;;;;;;16.70;11.00;;;;;;;5.83;91.77;101989.36;105545;1295;59227;-78
2023/01/03 07:45:43;;;;;;;16.00;11.40;;;;;;;5.89;91.76;101995.63;105398;1293;71043;-78
2023/01/03 07:48:10;;;;;;;17.10;11.20;;;;;;;5.93;91.72;101993.61;105434;1298;72619;-78
2023/01/03 07:50:37;;;;;;;17.60;11.80;;;;;;;5.96;91.67;102002.53;105384;1295;62723;-78
2023/01/03 07:53:06;;;;;;;18.80;11.60;;;;;;;5.97;91.82;102004.36;105455;1295;59285;-78
2023/01/03 07:55:34;;;;;;;16.80;11.90;;;;;;;6.00;91.75;102007.14;105630;1295;75451;-78
2023/01/03 07:58:01;;;;;;;15.30;11.30;;;;;;;6.05;91.75;102008.18;105446;1296;69882;-78
2023/01/03 08:00:28;;;;;;;15.60;10.90;;;;;;;6.08;91.45;102010.95;105398;1296;74038;-78
2023/01/03 08:02:54;;;;;;;17.30;10.70;;;;;;;6.09;91.34;102010.48;105552;1294;58834;-78
2023/01/03 08:05:22;;;;;;;15.90;10.70;;;;;;;6.11;91.28;102013.33;105473;1298;59370;-78
2023/01/03 08:07:51;;;;;;;13.80;10.40;;;;;;;6.12;91.03;102012.58;105531;1295;74453;-78
2023/01/03 08:13:16;;;;;;;13.50;10.00;;;;;;;6.15;90.79;102010.42;105551;1298;71449;-78
2023/01/03 08:15:46;;;;;;;14.80;10.40;;;;;;;6.16;90.17;102010.59;105542;1294;59941;-78
2023/01/03 08:18:15;;;;;;;14.20;10.00;;;;;;;6.14;90.19;102013.15;105488;1295;62056;-78
2023/01/03 08:20:41;;;;;;;14.60;10.40;;;;;;;6.12;90.03;102013.61;105456;1298;75328;-78
2023/01/03 08:23:08;;;;;;;13.70;10.50;;;;;;;6.15;89.87;102013.77;105448;1297;71436;-76
2023/01/03 08:25:35;;;;;;;14.70;10.00;;;;;;;6.20;90.00;102011.33;105537;1295;59115;-76
2023/01/03 08:28:02;;;;;;;14.20;10.20;;;;;;;6.25;89.74;102010.75;105487;1295;59784;-77
2023/01/03 08:30:30;;;;;;;15.10;9.90;;;;;;;6.28;89.64;102013.35;105433;1295;60790;-76
2023/01/03 08:33:00;;;;;;;13.50;9.30;;;;;;;6.30;89.49;102013.71;105028;1295;74749;-74
2023/01/03 08:35:33;;;;;;;13.50;9.50;;;;;;;6.31;89.26;102013.45;105658;1290;72657;-74
2023/01/03 08:38:02;;;;;;;15.40;9.50;;;;;;;6.31;88.83;102015.92;105638;1296;71442;-74
2023/01/03 08:40:31;;;;;;;13.30;9.50;;;;;;;6.29;88.66;102016.20;105505;1295;60507;-74
2023/01/03 08:43:05;;;;;;;12.80;9.20;;;;;;;6.27;88.66;102017.47;105451;1295;59021;-74
2023/01/03 08:45:32;;;;;;;13.60;9.00;;;;;;;6.26;88.25;102022.98;105516;1293;73426;-74
2023/01/03 08:48:01;;;;;;;11.80;9.40;;;;;;;6.24;88.46;102026.66;105536;1293;70716;-74
2023/01/03 08:50:31;;;;;;;14.30;9.80;;;;;;;6.24;88.45;102031.05;105507;1291;71394;-74
2023/01/03 08:52:58;;;;;;;12.70;9.40;;;;;;;6.24;88.35;102037.03;105470;1294;59666;-74
2023/01/03 08:55:25;;;;;;;13.70;9.70;;;;;;;6.24;88.42;102040.17;105640;1293;58978;-74
2023/01/03 08:57:52;;;;;;;13.00;10.10;;;;;;;6.24;88.45;102041.91;105654;1294;74017;-74
2023/01/03 09:00:19;;;;;;;13.20;9.50;;;;;;;6.25;88.41;102040.05;105527;1293;69578;-74
2023/01/03 09:02:45;;;;;;;14.60;10.10;;;;;;;6.26;88.66;102046.47;105710;1295;71996;-74
2023/01/03 09:05:12;;;;;;;14.20;10.20;;;;;;;6.27;88.38;102049.58;105504;1295;61012;-73
2023/01/03 09:07:39;;;;;;;14.40;10.60;;;;;;;6.28;88.36;102058.30;105671;1294;58970;-73
2023/01/03 09:10:06;;;;;;;14.40;10.80;;;;;;;6.27;87.63;102059.61;105503;1301;59016;-73
2023/01/03 09:12:32;;;;;;;15.40;10.50;;;;;;;6.30;87.69;102064.68;105566;1291;69271;-73
2023/01/03 09:14:59;;;;;;;15.90;11.00;;;;;;;6.31;87.22;102065.27;105637;1290;71069;-73
2023/01/03 09:17:25;;;;;;;15.40;10.80;;;;;;;6.35;87.11;102069.39;105531;1292;59250;-73
2023/01/03 09:19:52;;;;;;;14.90;10.80;;;;;;;6.38;86.83;102069.48;105550;1296;58928;-73
2023/01/03 09:22:18;;;;;;;14.00;10.10;;;;;;;6.43;86.68;102072.47;105629;1295;59053;-74
2023/01/03 09:24:45;;;;;;;15.20;10.90;;;;;;;6.46;86.32;102071.88;105643;1293;70087;-74
2023/01/03 09:27:11;;;;;;;17.40;11.60;;;;;;;6.51;86.41;102074.89;105608;1295;59015;-74
2023/01/03 09:29:38;;;;;;;13.40;10.50;;;;;;;6.51;85.79;102076.93;105487;1290;59618;-74
2023/01/03 09:32:04;;;;;;;16.50;11.20;;;;;;;6.53;85.41;102079.32;105587;1298;59044;-73
2023/01/03 09:34:31;;;;;;;16.80;12.20;;;;;;;6.55;85.32;102083.39;105520;1296;73137;-74
2023/01/03 09:36:57;;;;;;;20.60;12.50;;;;;;;6.57;85.21;102086.05;105658;1291;59017;-74
2023/01/03 09:39:24;;;;;;;16.40;11.60;;;;;;;6.58;84.86;102090.90;105434;1295;59031;-74
2023/01/03 09:43:11;;;;;;;15.20;11.40;;;;;;;6.63;84.80;102087.87;105329;1300;58933;-74
2023/01/03 09:44:38;;;;;;;18.60;13.30;;;;;;;6.66;84.32;102086.06;105485;1292;59727;-74
2023/01/03 09:47:05;;;;;;;17.10;13.20;;;;;;;6.68;83.64;102086.30;105358;1299;74500;-74
2023/01/03 09:49:38;;;;;;;20.00;12.60;;;;;;;6.71;83.65;102088.31;105626;1295;71973;-74
2023/01/03 10:04:08;;;;;;;17.90;12.50;;;;;;;6.94;83.68;102071.84;105402;1288;69076;-74
2023/01/03 10:06:54;;;;;;;19.30;12.80;;;;;;;7.00;83.77;102072.79;105299;1298;72788;-74
2023/01/03 10:09:45;;;;;;;16.50;12.50;;;;;;;7.04;83.27;102074.59;105415;1290;61196;-74
2023/01/03 10:12:34;;;;;;;16.50;11.90;;;;;;;7.08;83.13;102073.56;105491;1293;59759;-74
2023/01/03 10:15:18;;;;;;;16.90;12.00;;;;;;;7.09;82.54;102070.64;105468;1296;74613;-74
2023/01/03 10:18:07;;;;;;;16.20;12.40;;;;;;;7.12;82.52;102070.23;105483;1293;69465;-75
2023/01/03 10:20:47;;;;;;;15.30;11.90;;;;;;;7.17;81.77;102064.98;105612;1291;73291;-74
2023/01/03 10:23:14;;;;;;;18.00;11.80;;;;;;;7.22;81.97;102065.83;105431;1293;61099;-74
2023/01/03 10:25:43;;;;;;;18.00;12.60;;;;;;;7.23;81.67;102062.15;105597;1285;59011;-74
2023/01/03 10:28:16;;;;;;;16.30;12.60;;;;;;;7.27;81.42;102060.34;105521;1294;73367;-75
2023/01/03 10:30:56;;;;;;;15.90;11.60;;;;;;;7.29;81.47;102054.81;105672;1293;70279;-75
2023/01/03 10:33:47;;;;;;;16.30;11.40;;;;;;;7.32;81.69;102052.99;105510;1295;71777;-75
2023/01/03 10:36:15;;;;;;;15.00;10.40;;;;;;;7.34;81.20;102048.98;105332;1298;60471;-75
2023/01/03 10:38:43;;;;;;;13.30;10.20;;;;;;;7.37;81.16;102051.45;105512;1295;59478;-75
2023/01/03 10:41:44;;;;;;;15.70;10.50;;;;;;;7.36;80.67;102052.56;105516;1295;72956;-75
2023/01/03 10:44:26;;;;;;;15.10;11.50;;;;;;;7.39;80.70;102051.60;105474;1295;71438;-75
2023/01/03 10:46:55;;;;;;;15.30;10.10;;;;;;;7.43;80.64;102045.69;105507;1295;72117;-75
2023/01/03 10:49:24;;;;;;;14.20;9.50;;;;;;;7.44;80.56;102039.95;105387;1286;59134;-75
2023/01/03 10:52:13;;;;;;;13.20;9.50;;;;;;;7.45;80.59;102040.04;105399;1285;61333;-75
2023/01/03 10:54:39;;;;;;;13.20;8.60;;;;;;;7.47;80.17;102034.67;105384;1290;73912;-75
2023/01/03 10:57:06;;;;;;;13.60;9.30;;;;;;;7.51;80.14;102036.42;105682;1292;59031;-75
2023/01/03 10:59:33;;;;;;;11.60;8.80;;;;;;;7.54;79.67;102038.10;105517;1295;71921;-75
2023/01/03 11:02:21;;;;;;;11.10;8.40;;;;;;;7.55;79.72;102042.63;105596;1292;59268;-75
2023/01/03 11:05:11;;;;;;;12.20;7.90;;;;;;;7.57;79.39;102041.93;105643;1295;60211;-75
2023/01/03 11:08:12;;;;;;;11.40;6.90;;;;;;;7.58;78.39;102037.33;105396;1295;74863;-75
2023/01/03 11:10:56;;;;;;;10.00;6.90;;;;;;;7.58;78.45;102036.92;105580;1294;70583;-75
2023/01/03 11:13:39;;;;;;;8.70;6.50;;;;;;;7.60;77.79;102036.05;105477;1287;71804;-75
2023/01/03 11:16:15;;;;;;;10.70;6.80;;;;;;;7.60;77.52;102022.67;105509;1294;59653;-75
2023/01/03 11:18:43;;;;;;;7.90;5.70;;;;;;;7.65;77.79;102025.04;105389;1293;59461;-75
2023/01/03 11:21:22;;;;;;;8.40;5.90;;;;;;;7.79;77.02;102025.55;105416;1293;73085;-75
2023/01/03 11:23:54;;;;;;;8.40;5.90;;;;;;;7.94;77.04;102014.11;105508;1293;70206;-76
2023/01/03 11:26:39;;;;;;;9.20;6.10;;;;;;;8.02;76.44;102018.38;105608;1293;72842;-75
2023/01/03 11:29:26;;;;;;;9.60;5.10;;;;;;;8.13;75.44;102021.02;105502;1287;60031;-75
2023/01/03 11:31:57;;;;;;;6.40;4.90;;;;;;;8.39;74.80;102015.72;105557;1285;59350;-75
2023/01/03 11:34:41;;;;;;;6.80;4.70;;;;;;;8.72;74.60;102006.11;105509;1288;73744;-75
2023/01/03 11:37:56;;;;;;;6.90;4.70;;;;;;;9.15;71.80;102006.10;105629;1293;71234;-75
2023/01/03 11:40:51;;;;;;;7.80;4.70;;;;;;;9.45;69.93;101999.81;105601;1295;71120;-75
2023/01/03 11:43:44;;;;;;;8.00;5.10;;;;;;;9.76;69.88;101995.06;105501;1295;60564;-75
2023/01/03 11:46:44;;;;;;;7.90;5.10;;;;;;;10.01;68.55;101987.73;105491;1294;59073;-75
2023/01/03 11:49:14;;;;;;;7.00;3.90;;;;;;;10.33;68.40;101985.00;105672;1288;74079;-74
2023/01/03 11:51:47;;;;;;;6.10;3.80;;;;;;;10.57;66.94;101982.73;105602;1292;70874;-75
2023/01/03 11:54:44;;;;;;;6.10;3.60;;;;;;;10.85;66.36;101979.64;105382;1293;71749;-74
2023/01/03 11:58:19;;;;;;;6.40;3.40;;;;;;;11.04;63.75;101975.55;105511;1287;60756;-73
2023/01/03 12:01:07;;;;;;;6.40;3.50;;;;;;;11.25;62.87;101979.56;104851;1305;59617;-73
2023/01/03 12:04:06;;;;;;;5.90;3.00;;;;;;;11.60;62.60;101976.09;105625;1293;76386;-73
2023/01/03 12:06:40;;;;;;;6.00;3.00;;;;;;;12.05;61.50;101970.17;105574;1293;70950;-74
2023/01/03 12:09:10;;;;;;;6.10;2.80;;;;;;;12.46;61.10;101965.13;105402;1295;71897;-73
2023/01/03 12:12:03;;;;;;;4.60;2.60;;;;;;;12.86;59.10;101968.16;105486;1295;59120;-73
2023/01/03 12:14:38;;;;;;;5.50;2.80;;;;;;;13.27;57.76;101967.13;105629;1288;58864;-73
2023/01/03 12:17:11;;;;;;;6.10;3.10;;;;;;;13.69;56.96;101968.73;105534;1295;74132;-73
2023/01/03 12:19:38;;;;;;;5.60;2.70;;;;;;;14.05;55.30;101964.47;105458;1295;71359;-73
2023/01/03 12:22:26;;;;;;;5.50;2.60;;;;;;;14.33;54.58;101964.96;105493;1289;59037;-73
2023/01/03 12:25:04;;;;;;;4.30;2.80;;;;;;;14.35;52.73;101959.27;105541;1294;61097;-73
2023/01/03 12:27:35;;;;;;;6.10;2.60;;;;;;;14.29;53.36;101959.20;105635;1294;58932;-71
2023/01/03 12:30:13;;;;;;;4.90;2.50;;;;;;;14.31;52.32;101955.79;105403;1285;73332;-73
2023/01/03 12:32:54;;;;;;;5.20;2.70;;;;;;;14.18;52.06;101957.94;105573;1287;71379;-71
2023/01/03 12:35:50;;;;;;;4.80;2.50;;;;;;;14.34;52.18;101950.60;105392;1290;70853;-71
2023/01/03 12:38:24;;;;;;;4.70;2.40;;;;;;;14.71;52.34;101951.59;105436;1295;59200;-71
2023/01/03 12:41:03;;;;;;;4.40;2.20;;;;;;;14.91;50.81;101951.30;105420;1296;58963;-71
2023/01/03 12:43:57;;;;;;;5.10;2.30;;;;;;;14.63;50.86;101946.23;105411;1294;72585;-74
2023/01/03 12:46:30;;;;;;;4.90;2.30;;;;;;;14.07;52.43;101946.27;105506;1293;71096;-74
2023/01/03 12:49:10;;;;;;;5.50;2.40;;;;;;;13.57;53.57;101940.89;105287;1289;71402;-71